sensor_id;sensor_type;location;lat;lon;timestamp;P1;durP1;ratioP1;P2;durP2;ratioP2
2720;SDS011;1368;49.484;11.112;2023-05-16T00:01:11;19.43;;;17.33;;
2720;SDS011;1368;49.484;11.112;2023-05-16T00:03:37;21.00;;;16.63;;
2720;SDS011;1368;49.484;11.112;2023-05-16T00:06:03;16.90;;;15.03;;
2720;SDS011;1368;49.484;11.112;2023-05-16T00:08:29;20.70;;;16.03;;
2720;SDS011;1368;49.484;11.112;2023-05-16T00:10:55;18.90;;;16.10;;
2720;SDS011;1368;49.484;11.112;2023-05-16T00:13:20;18.13;;;15.83;;
2720;SDS011;1368;49.484;11.112;2023-05-16T00:15:49;18.07;;;14.80;;
2720;SDS011;1368;49.484;11.112;2023-05-16T00:18:20;17.57;;;15.67;;
2720;SDS011;1368;49.484;11.112;2023-05-16T00:20:46;21.63;;;16.80;;
2720;SDS011;1368;49.484;11.112;2023-05-16T00:23:13;23.97;;;17.67;;
2720;SDS011;1368;49.484;11.112;2023-05-16T00:25:38;22.17;;;18.83;;
2720;SDS011;1368;49.484;11.112;2023-05-16T00:28:04;21.60;;;18.10;;
2720;SDS011;1368;49.484;11.112;2023-05-16T00:30:30;21.17;;;18.80;;
2720;SDS011;1368;49.484;11.112;2023-05-16T00:32:56;23.57;;;19.60;;
2720;SDS011;1368;49.484;11.112;2023-05-16T00:35:22;19.40;;;16.97;;
2720;SDS011;1368;49.484;11.112;2023-05-16T00:37:47;17.47;;;15.60;;
2720;SDS011;1368;49.484;11.112;2023-05-16T00:40:14;18.93;;;16.70;;
2720;SDS011;1368;49.484;11.112;2023-05-16T00:42:39;19.90;;;17.70;;
2720;SDS011;1368;49.484;11.112;2023-05-16T00:45:05;23.40;;;18.50;;
2720;SDS011;1368;49.484;11.112;2023-05-16T00:47:31;21.17;;;17.50;;
2720;SDS011;1368;49.484;11.112;2023-05-16T00:49:57;20.07;;;17.90;;
2720;SDS011;1368;49.484;11.112;2023-05-16T00:52:23;24.80;;;18.87;;
2720;SDS011;1368;49.484;11.112;2023-05-16T00:54:49;20.50;;;17.00;;
2720;SDS011;1368;49.484;11.112;2023-05-16T00:57:15;27.13;;;18.30;;
2720;SDS011;1368;49.484;11.112;2023-05-16T00:59:41;21.03;;;17.40;;
2720;SDS011;1368;49.484;11.112;2023-05-16T01:02:10;21.93;;;18.03;;
2720;SDS011;1368;49.484;11.112;2023-05-16T01:04:36;20.60;;;16.17;;
2720;SDS011;1368;49.484;11.112;2023-05-16T01:07:02;24.07;;;18.80;;
2720;SDS011;1368;49.484;11.112;2023-05-16T01:09:28;22.07;;;17.97;;
2720;SDS011;1368;49.484;11.112;2023-05-16T01:17:54;23.27;;;18.07;;
2720;SDS011;1368;49.484;11.112;2023-05-16T01:20:38;20.27;;;17.87;;
2720;SDS011;1368;49.484;11.112;2023-05-16T01:23:18;26.00;;;17.13;;
2720;SDS011;1368;49.484;11.112;2023-05-16T01:28:38;20.47;;;17.50;;
2720;SDS011;1368;49.484;11.112;2023-05-16T01:31:05;22.40;;;18.70;;
2720;SDS011;1368;49.484;11.112;2023-05-16T01:33:31;26.63;;;19.23;;
2720;SDS011;1368;49.484;11.112;2023-05-16T01:35:58;29.03;;;19.50;;
2720;SDS011;1368;49.484;11.112;2023-05-16T01:38:37;23.47;;;18.57;;
2720;SDS011;1368;49.484;11.112;2023-05-16T01:43:58;21.73;;;17.63;;
2720;SDS011;1368;49.484;11.112;2023-05-16T01:46:30;21.43;;;17.20;;
2720;SDS011;1368;49.484;11.112;2023-05-16T01:49:03;21.70;;;18.10;;
2720;SDS011;1368;49.484;11.112;2023-05-16T01:51:41;21.53;;;17.90;;
2720;SDS011;1368;49.484;11.112;2023-05-16T01:54:11;22.70;;;18.07;;
2720;SDS011;1368;49.484;11.112;2023-05-16T01:56:37;23.10;;;18.50;;
2720;SDS011;1368;49.484;11.112;2023-05-16T01:59:04;25.23;;;19.90;;
2720;SDS011;1368;49.484;11.112;2023-05-16T02:01:31;20.97;;;17.73;;
2720;SDS011;1368;49.484;11.112;2023-05-16T02:03:57;20.33;;;17.13;;
2720;SDS011;1368;49.484;11.112;2023-05-16T02:06:23;22.60;;;18.80;;
2720;SDS011;1368;49.484;11.112;2023-05-16T02:08:50;22.70;;;19.20;;
2720;SDS011;1368;49.484;11.112;2023-05-16T02:11:16;18.80;;;16.23;;
2720;SDS011;1368;49.484;11.112;2023-05-16T02:13:41;19.80;;;17.70;;
2720;SDS011;1368;49.484;11.112;2023-05-16T02:16:09;26.20;;;18.73;;
2720;SDS011;1368;49.484;11.112;2023-05-16T02:18:35;23.70;;;16.97;;
2720;SDS011;1368;49.484;11.112;2023-05-16T02:21:00;18.60;;;16.63;;
2720;SDS011;1368;49.484;11.112;2023-05-16T02:23:26;23.70;;;18.20;;
2720;SDS011;1368;49.484;11.112;2023-05-16T02:25:51;19.90;;;17.60;;
2720;SDS011;1368;49.484;11.112;2023-05-16T02:28:17;23.30;;;19.90;;
2720;SDS011;1368;49.484;11.112;2023-05-16T02:30:42;20.80;;;17.63;;
2720;SDS011;1368;49.484;11.112;2023-05-16T02:33:08;23.53;;;19.10;;
2720;SDS011;1368;49.484;11.112;2023-05-16T02:35:34;20.67;;;17.30;;
2720;SDS011;1368;49.484;11.112;2023-05-16T02:38:00;23.07;;;16.90;;
2720;SDS011;1368;49.484;11.112;2023-05-16T02:40:26;24.00;;;17.90;;
2720;SDS011;1368;49.484;11.112;2023-05-16T02:42:51;26.63;;;17.33;;
2720;SDS011;1368;49.484;11.112;2023-05-16T02:45:17;20.37;;;16.87;;
2720;SDS011;1368;49.484;11.112;2023-05-16T02:47:42;21.97;;;18.53;;
2720;SDS011;1368;49.484;11.112;2023-05-16T02:50:08;27.00;;;18.93;;
2720;SDS011;1368;49.484;11.112;2023-05-16T02:52:34;22.23;;;19.50;;
2720;SDS011;1368;49.484;11.112;2023-05-16T02:54:59;23.97;;;20.10;;
2720;SDS011;1368;49.484;11.112;2023-05-16T02:57:25;23.60;;;18.93;;
2720;SDS011;1368;49.484;11.112;2023-05-16T02:59:50;25.23;;;18.33;;
2720;SDS011;1368;49.484;11.112;2023-05-16T03:02:16;21.60;;;17.73;;
2720;SDS011;1368;49.484;11.112;2023-05-16T03:04:41;25.90;;;19.17;;
2720;SDS011;1368;49.484;11.112;2023-05-16T03:07:07;20.80;;;18.63;;
2720;SDS011;1368;49.484;11.112;2023-05-16T03:09:32;25.33;;;18.60;;
2720;SDS011;1368;49.484;11.112;2023-05-16T03:11:58;24.60;;;17.60;;
2720;SDS011;1368;49.484;11.112;2023-05-16T03:14:23;24.07;;;18.10;;
2720;SDS011;1368;49.484;11.112;2023-05-16T03:16:49;20.50;;;18.27;;
2720;SDS011;1368;49.484;11.112;2023-05-16T03:19:15;20.23;;;18.13;;
2720;SDS011;1368;49.484;11.112;2023-05-16T03:21:41;22.60;;;18.03;;
2720;SDS011;1368;49.484;11.112;2023-05-16T03:24:06;20.77;;;18.47;;
2720;SDS011;1368;49.484;11.112;2023-05-16T03:26:32;25.07;;;18.50;;
2720;SDS011;1368;49.484;11.112;2023-05-16T03:28:58;22.37;;;19.30;;
2720;SDS011;1368;49.484;11.112;2023-05-16T03:31:23;21.87;;;19.30;;
2720;SDS011;1368;49.484;11.112;2023-05-16T03:33:49;23.27;;;18.37;;
2720;SDS011;1368;49.484;11.112;2023-05-16T03:36:15;22.30;;;18.30;;
2720;SDS011;1368;49.484;11.112;2023-05-16T03:38:40;21.33;;;18.03;;
2720;SDS011;1368;49.484;11.112;2023-05-16T03:41:06;20.33;;;16.33;;
2720;SDS011;1368;49.484;11.112;2023-05-16T03:43:32;21.73;;;17.40;;
2720;SDS011;1368;49.484;11.112;2023-05-16T03:45:59;22.67;;;19.63;;
2720;SDS011;1368;49.484;11.112;2023-05-16T03:48:25;19.83;;;17.43;;
2720;SDS011;1368;49.484;11.112;2023-05-16T03:50:51;19.07;;;16.57;;
2720;SDS011;1368;49.484;11.112;2023-05-16T03:53:16;21.97;;;17.53;;
2720;SDS011;1368;49.484;11.112;2023-05-16T03:55:42;20.70;;;17.73;;
2720;SDS011;1368;49.484;11.112;2023-05-16T03:58:07;21.83;;;18.30;;
2720;SDS011;1368;49.484;11.112;2023-05-16T04:00:33;19.40;;;17.40;;
2720;SDS011;1368;49.484;11.112;2023-05-16T04:03:00;19.50;;;16.60;;
2720;SDS011;1368;49.484;11.112;2023-05-16T04:05:26;18.37;;;15.80;;
2720;SDS011;1368;49.484;11.112;2023-05-16T04:07:52;16.03;;;14.40;;
2720;SDS011;1368;49.484;11.112;2023-05-16T04:10:17;20.80;;;16.83;;
2720;SDS011;1368;49.484;11.112;2023-05-16T04:12:43;18.00;;;16.00;;
2720;SDS011;1368;49.484;11.112;2023-05-16T04:15:08;18.70;;;16.87;;
2720;SDS011;1368;49.484;11.112;2023-05-16T04:17:34;24.53;;;17.93;;
2720;SDS011;1368;49.484;11.112;2023-05-16T04:20:00;20.47;;;18.27;;
2720;SDS011;1368;49.484;11.112;2023-05-16T04:22:26;21.10;;;17.53;;
2720;SDS011;1368;49.484;11.112;2023-05-16T04:24:51;25.63;;;19.63;;
2720;SDS011;1368;49.484;11.112;2023-05-16T04:27:17;23.00;;;20.43;;
2720;SDS011;1368;49.484;11.112;2023-05-16T04:29:42;20.03;;;17.40;;
2720;SDS011;1368;49.484;11.112;2023-05-16T04:32:08;25.50;;;21.97;;
2720;SDS011;1368;49.484;11.112;2023-05-16T04:34:35;29.40;;;23.83;;
2720;SDS011;1368;49.484;11.112;2023-05-16T04:37:04;31.97;;;25.00;;
2720;SDS011;1368;49.484;11.112;2023-05-16T04:39:31;35.53;;;28.87;;
2720;SDS011;1368;49.484;11.112;2023-05-16T04:41:57;35.60;;;27.17;;
2720;SDS011;1368;49.484;11.112;2023-05-16T04:44:26;34.27;;;28.77;;
2720;SDS011;1368;49.484;11.112;2023-05-16T04:46:52;30.13;;;26.87;;
2720;SDS011;1368;49.484;11.112;2023-05-16T04:49:18;34.87;;;27.40;;
2720;SDS011;1368;49.484;11.112;2023-05-16T04:51:45;32.30;;;25.40;;
2720;SDS011;1368;49.484;11.112;2023-05-16T04:54:11;28.57;;;25.40;;
2720;SDS011;1368;49.484;11.112;2023-05-16T04:56:37;27.20;;;23.63;;
2720;SDS011;1368;49.484;11.112;2023-05-16T04:59:03;25.77;;;23.00;;
2720;SDS011;1368;49.484;11.112;2023-05-16T05:01:28;24.90;;;22.17;;
2720;SDS011;1368;49.484;11.112;2023-05-16T05:03:54;27.27;;;24.30;;
2720;SDS011;1368;49.484;11.112;2023-05-16T05:06:20;25.23;;;22.63;;
2720;SDS011;1368;49.484;11.112;2023-05-16T05:08:45;25.07;;;22.07;;
2720;SDS011;1368;49.484;11.112;2023-05-16T05:11:11;22.73;;;20.37;;
2720;SDS011;1368;49.484;11.112;2023-05-16T05:13:37;24.93;;;22.33;;
2720;SDS011;1368;49.484;11.112;2023-05-16T05:16:02;23.43;;;20.93;;
2720;SDS011;1368;49.484;11.112;2023-05-16T05:18:29;23.43;;;21.07;;
2720;SDS011;1368;49.484;11.112;2023-05-16T05:20:54;26.43;;;21.77;;
2720;SDS011;1368;49.484;11.112;2023-05-16T05:23:20;25.27;;;21.83;;
2720;SDS011;1368;49.484;11.112;2023-05-16T05:25:46;24.00;;;20.07;;
2720;SDS011;1368;49.484;11.112;2023-05-16T05:28:11;24.53;;;20.77;;
2720;SDS011;1368;49.484;11.112;2023-05-16T05:30:37;23.10;;;18.67;;
2720;SDS011;1368;49.484;11.112;2023-05-16T05:33:03;21.77;;;19.47;;
2720;SDS011;1368;49.484;11.112;2023-05-16T05:35:28;21.10;;;18.97;;
2720;SDS011;1368;49.484;11.112;2023-05-16T05:37:54;22.80;;;20.40;;
2720;SDS011;1368;49.484;11.112;2023-05-16T05:40:19;21.10;;;19.00;;
2720;SDS011;1368;49.484;11.112;2023-05-16T05:42:45;20.63;;;18.50;;
2720;SDS011;1368;49.484;11.112;2023-05-16T05:45:10;22.50;;;18.90;;
2720;SDS011;1368;49.484;11.112;2023-05-16T05:47:36;19.57;;;17.67;;
2720;SDS011;1368;49.484;11.112;2023-05-16T05:50:02;18.63;;;16.80;;
2720;SDS011;1368;49.484;11.112;2023-05-16T05:52:28;21.13;;;18.97;;
2720;SDS011;1368;49.484;11.112;2023-05-16T05:54:53;19.40;;;17.40;;
2720;SDS011;1368;49.484;11.112;2023-05-16T05:57:19;21.27;;;19.03;;
2720;SDS011;1368;49.484;11.112;2023-05-16T05:59:45;20.10;;;17.90;;
2720;SDS011;1368;49.484;11.112;2023-05-16T06:02:10;19.13;;;17.23;;
2720;SDS011;1368;49.484;11.112;2023-05-16T06:04:36;19.00;;;16.90;;
2720;SDS011;1368;49.484;11.112;2023-05-16T06:07:02;19.40;;;17.47;;
2720;SDS011;1368;49.484;11.112;2023-05-16T06:09:28;20.83;;;15.83;;
2720;SDS011;1368;49.484;11.112;2023-05-16T06:11:54;19.03;;;17.17;;
2720;SDS011;1368;49.484;11.112;2023-05-16T06:14:20;17.43;;;15.63;;
2720;SDS011;1368;49.484;11.112;2023-05-16T06:16:45;16.10;;;14.50;;
2720;SDS011;1368;49.484;11.112;2023-05-16T06:19:11;15.90;;;14.40;;
2720;SDS011;1368;49.484;11.112;2023-05-16T06:21:39;17.13;;;14.13;;
2720;SDS011;1368;49.484;11.112;2023-05-16T06:24:05;18.13;;;15.00;;
2720;SDS011;1368;49.484;11.112;2023-05-16T06:26:32;15.10;;;12.33;;
2720;SDS011;1368;49.484;11.112;2023-05-16T06:28:57;19.40;;;13.40;;
2720;SDS011;1368;49.484;11.112;2023-05-16T06:31:23;12.77;;;11.47;;
2720;SDS011;1368;49.484;11.112;2023-05-16T06:33:49;13.43;;;12.03;;
2720;SDS011;1368;49.484;11.112;2023-05-16T06:36:14;17.10;;;12.57;;
2720;SDS011;1368;49.484;11.112;2023-05-16T06:38:40;13.50;;;12.20;;
2720;SDS011;1368;49.484;11.112;2023-05-16T06:41:05;11.30;;;10.20;;
2720;SDS011;1368;49.484;11.112;2023-05-16T06:43:31;14.10;;;12.70;;
2720;SDS011;1368;49.484;11.112;2023-05-16T06:45:57;13.60;;;11.83;;
2720;SDS011;1368;49.484;11.112;2023-05-16T06:48:22;12.57;;;10.20;;
2720;SDS011;1368;49.484;11.112;2023-05-16T06:50:48;10.83;;;9.83;;
2720;SDS011;1368;49.484;11.112;2023-05-16T06:53:17;11.00;;;9.63;;
2720;SDS011;1368;49.484;11.112;2023-05-16T06:55:43;12.33;;;10.90;;
2720;SDS011;1368;49.484;11.112;2023-05-16T06:58:09;10.47;;;8.70;;
2720;SDS011;1368;49.484;11.112;2023-05-16T07:00:35;10.70;;;9.13;;
2720;SDS011;1368;49.484;11.112;2023-05-16T07:03:00;10.83;;;9.77;;
2720;SDS011;1368;49.484;11.112;2023-05-16T07:05:27;11.40;;;10.10;;
2720;SDS011;1368;49.484;11.112;2023-05-16T07:07:53;13.13;;;10.33;;
2720;SDS011;1368;49.484;11.112;2023-05-16T07:10:19;12.03;;;10.27;;
2720;SDS011;1368;49.484;11.112;2023-05-16T07:12:45;12.00;;;10.67;;
2720;SDS011;1368;49.484;11.112;2023-05-16T07:15:10;11.70;;;10.60;;
2720;SDS011;1368;49.484;11.112;2023-05-16T07:17:36;11.77;;;10.40;;
2720;SDS011;1368;49.484;11.112;2023-05-16T07:20:02;11.83;;;10.53;;
2720;SDS011;1368;49.484;11.112;2023-05-16T07:22:28;12.67;;;11.00;;
2720;SDS011;1368;49.484;11.112;2023-05-16T07:24:54;13.20;;;11.37;;
2720;SDS011;1368;49.484;11.112;2023-05-16T07:27:21;13.33;;;12.00;;
2720;SDS011;1368;49.484;11.112;2023-05-16T07:29:47;13.33;;;11.57;;
2720;SDS011;1368;49.484;11.112;2023-05-16T07:32:12;13.00;;;11.50;;
2720;SDS011;1368;49.484;11.112;2023-05-16T07:34:38;12.77;;;11.47;;
2720;SDS011;1368;49.484;11.112;2023-05-16T07:37:03;13.00;;;11.80;;
2720;SDS011;1368;49.484;11.112;2023-05-16T07:39:31;14.00;;;12.40;;
2720;SDS011;1368;49.484;11.112;2023-05-16T07:41:57;11.73;;;10.53;;
2720;SDS011;1368;49.484;11.112;2023-05-16T07:44:22;13.00;;;11.70;;
2720;SDS011;1368;49.484;11.112;2023-05-16T07:46:48;13.93;;;12.43;;
2720;SDS011;1368;49.484;11.112;2023-05-16T07:49:14;12.37;;;11.17;;
2720;SDS011;1368;49.484;11.112;2023-05-16T07:51:40;13.73;;;12.47;;
2720;SDS011;1368;49.484;11.112;2023-05-16T07:54:05;12.27;;;11.07;;
2720;SDS011;1368;49.484;11.112;2023-05-16T07:56:31;12.70;;;9.30;;
2720;SDS011;1368;49.484;11.112;2023-05-16T07:58:57;12.07;;;10.93;;
2720;SDS011;1368;49.484;11.112;2023-05-16T08:01:23;13.63;;;12.27;;
2720;SDS011;1368;49.484;11.112;2023-05-16T08:03:48;17.43;;;10.63;;
2720;SDS011;1368;49.484;11.112;2023-05-16T08:06:14;12.70;;;11.50;;
2720;SDS011;1368;49.484;11.112;2023-05-16T08:08:39;13.60;;;11.33;;
2720;SDS011;1368;49.484;11.112;2023-05-16T08:11:05;11.27;;;10.07;;
2720;SDS011;1368;49.484;11.112;2023-05-16T08:13:31;14.03;;;10.50;;
2720;SDS011;1368;49.484;11.112;2023-05-16T08:15:56;11.57;;;10.47;;
2720;SDS011;1368;49.484;11.112;2023-05-16T08:18:22;11.90;;;10.60;;
2720;SDS011;1368;49.484;11.112;2023-05-16T08:20:48;9.87;;;8.97;;
2720;SDS011;1368;49.484;11.112;2023-05-16T08:23:13;14.60;;;9.33;;
2720;SDS011;1368;49.484;11.112;2023-05-16T08:25:39;10.17;;;9.13;;
2720;SDS011;1368;49.484;11.112;2023-05-16T08:28:04;13.17;;;9.63;;
2720;SDS011;1368;49.484;11.112;2023-05-16T08:30:30;14.20;;;10.67;;
2720;SDS011;1368;49.484;11.112;2023-05-16T08:32:56;11.23;;;10.17;;
2720;SDS011;1368;49.484;11.112;2023-05-16T08:35:21;11.90;;;10.63;;
2720;SDS011;1368;49.484;11.112;2023-05-16T08:37:47;13.43;;;10.97;;
2720;SDS011;1368;49.484;11.112;2023-05-16T08:40:12;15.03;;;10.93;;
2720;SDS011;1368;49.484;11.112;2023-05-16T08:42:39;12.30;;;9.27;;
2720;SDS011;1368;49.484;11.112;2023-05-16T08:45:05;11.20;;;10.07;;
2720;SDS011;1368;49.484;11.112;2023-05-16T08:47:32;11.90;;;9.60;;
2720;SDS011;1368;49.484;11.112;2023-05-16T08:50:01;12.13;;;10.27;;
2720;SDS011;1368;49.484;11.112;2023-05-16T08:52:28;10.73;;;9.53;;
2720;SDS011;1368;49.484;11.112;2023-05-16T08:54:56;11.40;;;8.97;;
2720;SDS011;1368;49.484;11.112;2023-05-16T08:57:25;10.80;;;9.70;;
2720;SDS011;1368;49.484;11.112;2023-05-16T08:59:52;10.93;;;9.17;;
2720;SDS011;1368;49.484;11.112;2023-05-16T09:02:20;10.43;;;8.53;;
2720;SDS011;1368;49.484;11.112;2023-05-16T09:04:46;11.27;;;10.03;;
2720;SDS011;1368;49.484;11.112;2023-05-16T09:07:13;10.17;;;9.17;;
2720;SDS011;1368;49.484;11.112;2023-05-16T09:09:39;12.17;;;10.40;;
2720;SDS011;1368;49.484;11.112;2023-05-16T09:12:05;10.20;;;9.20;;
2720;SDS011;1368;49.484;11.112;2023-05-16T09:14:32;10.07;;;9.10;;
2720;SDS011;1368;49.484;11.112;2023-05-16T09:17:04;11.07;;;10.07;;
2720;SDS011;1368;49.484;11.112;2023-05-16T09:19:41;11.30;;;10.30;;
2720;SDS011;1368;49.484;11.112;2023-05-16T09:22:08;12.03;;;10.10;;
2720;SDS011;1368;49.484;11.112;2023-05-16T09:24:41;11.80;;;10.70;;
2720;SDS011;1368;49.484;11.112;2023-05-16T09:27:08;10.77;;;9.77;;
2720;SDS011;1368;49.484;11.112;2023-05-16T09:29:42;13.67;;;11.60;;
2720;SDS011;1368;49.484;11.112;2023-05-16T09:32:12;11.60;;;9.43;;
2720;SDS011;1368;49.484;11.112;2023-05-16T09:34:42;10.20;;;9.30;;
2720;SDS011;1368;49.484;11.112;2023-05-16T09:37:09;11.40;;;10.23;;
2720;SDS011;1368;49.484;11.112;2023-05-16T09:39:36;15.10;;;10.63;;
2720;SDS011;1368;49.484;11.112;2023-05-16T09:42:03;29.53;;;12.37;;
2720;SDS011;1368;49.484;11.112;2023-05-16T09:44:29;14.83;;;13.33;;
2720;SDS011;1368;49.484;11.112;2023-05-16T09:46:55;13.27;;;11.97;;
2720;SDS011;1368;49.484;11.112;2023-05-16T09:49:22;14.80;;;13.40;;
2720;SDS011;1368;49.484;11.112;2023-05-16T09:51:48;16.20;;;14.17;;
2720;SDS011;1368;49.484;11.112;2023-05-16T09:54:14;15.13;;;13.53;;
2720;SDS011;1368;49.484;11.112;2023-05-16T09:56:49;15.90;;;14.30;;
2720;SDS011;1368;49.484;11.112;2023-05-16T09:59:15;15.40;;;13.87;;
2720;SDS011;1368;49.484;11.112;2023-05-16T10:01:41;16.30;;;13.47;;
2720;SDS011;1368;49.484;11.112;2023-05-16T10:04:07;14.30;;;12.17;;
2720;SDS011;1368;49.484;11.112;2023-05-16T10:06:37;15.07;;;12.90;;
2720;SDS011;1368;49.484;11.112;2023-05-16T10:09:06;14.53;;;13.07;;
2720;SDS011;1368;49.484;11.112;2023-05-16T10:11:36;12.63;;;11.13;;
2720;SDS011;1368;49.484;11.112;2023-05-16T10:14:02;13.10;;;11.80;;
2720;SDS011;1368;49.484;11.112;2023-05-16T10:16:30;13.00;;;11.67;;
2720;SDS011;1368;49.484;11.112;2023-05-16T10:18:57;14.53;;;13.13;;
2720;SDS011;1368;49.484;11.112;2023-05-16T10:21:24;12.90;;;11.57;;
2720;SDS011;1368;49.484;11.112;2023-05-16T10:23:52;15.87;;;11.60;;
2720;SDS011;1368;49.484;11.112;2023-05-16T10:26:20;11.70;;;10.57;;
2720;SDS011;1368;49.484;11.112;2023-05-16T10:28:47;12.23;;;9.97;;
2720;SDS011;1368;49.484;11.112;2023-05-16T10:31:14;12.50;;;10.23;;
2720;SDS011;1368;49.484;11.112;2023-05-16T10:33:41;10.57;;;9.43;;
2720;SDS011;1368;49.484;11.112;2023-05-16T10:36:07;11.17;;;10.07;;
2720;SDS011;1368;49.484;11.112;2023-05-16T10:38:34;11.13;;;8.83;;
2720;SDS011;1368;49.484;11.112;2023-05-16T10:41:01;11.10;;;8.63;;
2720;SDS011;1368;49.484;11.112;2023-05-16T10:43:30;9.27;;;8.37;;
2720;SDS011;1368;49.484;11.112;2023-05-16T10:46:04;10.57;;;9.50;;
2720;SDS011;1368;49.484;11.112;2023-05-16T10:48:39;11.30;;;9.30;;
2720;SDS011;1368;49.484;11.112;2023-05-16T10:53:46;8.83;;;7.90;;
2720;SDS011;1368;49.484;11.112;2023-05-16T10:56:15;9.73;;;8.73;;
2720;SDS011;1368;49.484;11.112;2023-05-16T10:58:46;11.17;;;8.73;;
2720;SDS011;1368;49.484;11.112;2023-05-16T11:01:28;15.23;;;9.00;;
2720;SDS011;1368;49.484;11.112;2023-05-16T11:06:32;8.47;;;7.67;;
2720;SDS011;1368;49.484;11.112;2023-05-16T11:19:42;13.00;;;10.57;;
2720;SDS011;1368;49.484;11.112;2023-05-16T11:24:54;13.10;;;9.50;;
2720;SDS011;1368;49.484;11.112;2023-05-16T11:27:25;9.93;;;8.67;;
2720;SDS011;1368;49.484;11.112;2023-05-16T11:29:51;10.43;;;8.63;;
2720;SDS011;1368;49.484;11.112;2023-05-16T11:32:18;12.87;;;9.80;;
2720;SDS011;1368;49.484;11.112;2023-05-16T11:34:46;10.00;;;8.00;;
2720;SDS011;1368;49.484;11.112;2023-05-16T11:37:12;9.30;;;7.80;;
2720;SDS011;1368;49.484;11.112;2023-05-16T11:39:39;12.90;;;8.50;;
2720;SDS011;1368;49.484;11.112;2023-05-16T11:42:04;9.23;;;7.57;;
2720;SDS011;1368;49.484;11.112;2023-05-16T11:44:30;8.50;;;7.70;;
2720;SDS011;1368;49.484;11.112;2023-05-16T11:46:56;13.07;;;7.73;;
2720;SDS011;1368;49.484;11.112;2023-05-16T11:49:21;10.10;;;8.50;;
2720;SDS011;1368;49.484;11.112;2023-05-16T11:51:47;7.40;;;6.70;;
2720;SDS011;1368;49.484;11.112;2023-05-16T11:54:13;9.07;;;7.17;;
2720;SDS011;1368;49.484;11.112;2023-05-16T11:56:39;9.17;;;7.70;;
2720;SDS011;1368;49.484;11.112;2023-05-16T11:59:05;6.97;;;6.27;;
2720;SDS011;1368;49.484;11.112;2023-05-16T12:01:38;9.60;;;6.53;;
2720;SDS011;1368;49.484;11.112;2023-05-16T12:04:10;8.40;;;7.23;;
2720;SDS011;1368;49.484;11.112;2023-05-16T12:06:37;8.43;;;7.10;;
2720;SDS011;1368;49.484;11.112;2023-05-16T12:09:04;7.63;;;6.70;;
2720;SDS011;1368;49.484;11.112;2023-05-16T12:11:40;11.13;;;8.17;;
2720;SDS011;1368;49.484;11.112;2023-05-16T12:14:07;9.50;;;6.70;;
2720;SDS011;1368;49.484;11.112;2023-05-16T12:16:35;8.23;;;7.43;;
2720;SDS011;1368;49.484;11.112;2023-05-16T12:19:02;9.17;;;7.10;;
2720;SDS011;1368;49.484;11.112;2023-05-16T12:21:31;9.67;;;7.50;;
2720;SDS011;1368;49.484;11.112;2023-05-16T12:23:57;10.07;;;7.80;;
2720;SDS011;1368;49.484;11.112;2023-05-16T12:26:26;8.47;;;7.57;;
2720;SDS011;1368;49.484;11.112;2023-05-16T12:28:58;8.73;;;6.77;;
2720;SDS011;1368;49.484;11.112;2023-05-16T12:31:27;7.53;;;6.73;;
2720;SDS011;1368;49.484;11.112;2023-05-16T12:33:59;8.90;;;7.27;;
2720;SDS011;1368;49.484;11.112;2023-05-16T12:36:25;8.90;;;7.17;;
2720;SDS011;1368;49.484;11.112;2023-05-16T12:38:58;8.73;;;7.27;;
2720;SDS011;1368;49.484;11.112;2023-05-16T12:41:25;11.87;;;7.57;;
2720;SDS011;1368;49.484;11.112;2023-05-16T12:43:51;8.67;;;7.77;;
2720;SDS011;1368;49.484;11.112;2023-05-16T12:46:31;9.53;;;7.40;;
2720;SDS011;1368;49.484;11.112;2023-05-16T12:49:02;8.27;;;7.47;;
2720;SDS011;1368;49.484;11.112;2023-05-16T12:51:30;10.20;;;7.90;;
2720;SDS011;1368;49.484;11.112;2023-05-16T12:53:56;7.53;;;6.83;;
2720;SDS011;1368;49.484;11.112;2023-05-16T12:56:30;7.97;;;6.40;;
2720;SDS011;1368;49.484;11.112;2023-05-16T12:58:56;10.40;;;6.67;;
2720;SDS011;1368;49.484;11.112;2023-05-16T13:01:21;10.10;;;7.47;;
2720;SDS011;1368;49.484;11.112;2023-05-16T13:03:47;7.90;;;7.10;;
2720;SDS011;1368;49.484;11.112;2023-05-16T13:06:12;10.20;;;7.33;;
2720;SDS011;1368;49.484;11.112;2023-05-16T13:08:38;9.67;;;7.43;;
2720;SDS011;1368;49.484;11.112;2023-05-16T13:11:04;8.50;;;6.90;;
2720;SDS011;1368;49.484;11.112;2023-05-16T13:13:30;10.40;;;7.40;;
2720;SDS011;1368;49.484;11.112;2023-05-16T13:15:55;15.50;;;8.57;;
2720;SDS011;1368;49.484;11.112;2023-05-16T13:18:21;8.17;;;6.60;;
2720;SDS011;1368;49.484;11.112;2023-05-16T13:20:47;10.10;;;7.13;;
2720;SDS011;1368;49.484;11.112;2023-05-16T13:23:13;14.63;;;7.90;;
2720;SDS011;1368;49.484;11.112;2023-05-16T13:25:38;13.90;;;7.00;;
2720;SDS011;1368;49.484;11.112;2023-05-16T13:28:04;9.87;;;7.50;;
2720;SDS011;1368;49.484;11.112;2023-05-16T13:30:30;8.90;;;7.27;;
2720;SDS011;1368;49.484;11.112;2023-05-16T13:32:56;11.53;;;7.07;;
2720;SDS011;1368;49.484;11.112;2023-05-16T13:35:22;7.53;;;6.57;;
2720;SDS011;1368;49.484;11.112;2023-05-16T13:37:48;10.23;;;6.30;;
2720;SDS011;1368;49.484;11.112;2023-05-16T13:40:13;9.70;;;7.23;;
2720;SDS011;1368;49.484;11.112;2023-05-16T13:42:39;10.80;;;6.77;;
2720;SDS011;1368;49.484;11.112;2023-05-16T13:45:05;8.47;;;6.37;;
2720;SDS011;1368;49.484;11.112;2023-05-16T13:47:31;8.07;;;7.27;;
2720;SDS011;1368;49.484;11.112;2023-05-16T13:49:57;6.93;;;5.80;;
2720;SDS011;1368;49.484;11.112;2023-05-16T13:52:27;12.50;;;6.60;;
2720;SDS011;1368;49.484;11.112;2023-05-16T13:54:52;9.43;;;6.93;;
2720;SDS011;1368;49.484;11.112;2023-05-16T13:57:18;6.43;;;4.70;;
2720;SDS011;1368;49.484;11.112;2023-05-16T13:59:46;8.83;;;6.23;;
2720;SDS011;1368;49.484;11.112;2023-05-16T14:02:11;7.20;;;5.50;;
2720;SDS011;1368;49.484;11.112;2023-05-16T14:04:37;6.13;;;5.00;;
2720;SDS011;1368;49.484;11.112;2023-05-16T14:07:02;5.53;;;4.47;;
2720;SDS011;1368;49.484;11.112;2023-05-16T14:09:28;5.33;;;4.53;;
2720;SDS011;1368;49.484;11.112;2023-05-16T14:11:54;6.53;;;4.30;;
2720;SDS011;1368;49.484;11.112;2023-05-16T14:14:19;4.77;;;4.13;;
2720;SDS011;1368;49.484;11.112;2023-05-16T14:16:45;6.07;;;3.57;;
2720;SDS011;1368;49.484;11.112;2023-05-16T14:19:11;7.20;;;3.97;;
2720;SDS011;1368;49.484;11.112;2023-05-16T14:21:37;6.07;;;3.87;;
2720;SDS011;1368;49.484;11.112;2023-05-16T14:24:03;5.67;;;3.17;;
2720;SDS011;1368;49.484;11.112;2023-05-16T14:26:28;5.80;;;3.50;;
2720;SDS011;1368;49.484;11.112;2023-05-16T14:28:56;5.43;;;3.70;;
2720;SDS011;1368;49.484;11.112;2023-05-16T14:31:21;7.23;;;4.70;;
2720;SDS011;1368;49.484;11.112;2023-05-16T14:33:47;4.80;;;3.90;;
2720;SDS011;1368;49.484;11.112;2023-05-16T14:36:12;5.13;;;3.90;;
2720;SDS011;1368;49.484;11.112;2023-05-16T14:38:38;5.30;;;4.23;;
2720;SDS011;1368;49.484;11.112;2023-05-16T14:41:04;6.93;;;3.90;;
2720;SDS011;1368;49.484;11.112;2023-05-16T14:43:29;7.13;;;3.90;;
2720;SDS011;1368;49.484;11.112;2023-05-16T14:45:55;4.90;;;3.63;;
2720;SDS011;1368;49.484;11.112;2023-05-16T14:48:20;7.87;;;4.13;;
2720;SDS011;1368;49.484;11.112;2023-05-16T14:50:46;3.93;;;3.53;;
2720;SDS011;1368;49.484;11.112;2023-05-16T14:53:11;4.90;;;3.63;;
2720;SDS011;1368;49.484;11.112;2023-05-16T14:55:37;5.07;;;3.53;;
2720;SDS011;1368;49.484;11.112;2023-05-16T14:58:03;5.70;;;4.17;;
2720;SDS011;1368;49.484;11.112;2023-05-16T15:00:29;6.07;;;3.97;;
2720;SDS011;1368;49.484;11.112;2023-05-16T15:02:55;7.70;;;3.83;;
2720;SDS011;1368;49.484;11.112;2023-05-16T15:05:21;5.33;;;4.23;;
2720;SDS011;1368;49.484;11.112;2023-05-16T15:07:49;7.20;;;4.07;;
2720;SDS011;1368;49.484;11.112;2023-05-16T15:10:15;6.73;;;4.13;;